createdAt,value
2018-07-30T00:00:35.477Z,91.5
2018-07-30T00:01:35.216Z,91.69
2018-07-30T00:02:35.465Z,92.08
2018-07-30T00:03:35.464Z,91.89
2018-07-30T00:04:35.470Z,92.08
2018-07-30T00:05:35.459Z,91.79
2018-07-30T00:06:35.464Z,91.5
2018-07-30T00:07:35.466Z,92.27
2018-07-30T00:08:35.466Z,92.18
2018-07-30T00:09:35.455Z,92.08
2018-07-30T00:10:35.455Z,91.99
2018-07-30T00:11:35.459Z,92.08
2018-07-30T00:12:35.446Z,92.18
2018-07-30T00:13:35.443Z,92.08
2018-07-30T00:14:35.448Z,92.08
2018-07-30T00:15:35.446Z,91.99
2018-07-30T00:16:35.436Z,92.18
2018-07-30T00:17:35.436Z,92.08
2018-07-30T00:18:35.432Z,92.27
2018-07-30T00:19:35.439Z,92.18
2018-07-30T00:20:35.441Z,92.76
2018-07-30T00:21:35.192Z,92.18
2018-07-30T00:22:35.424Z,92.37
2018-07-30T00:23:35.430Z,92.56
2018-07-30T00:24:35.421Z,92.56
2018-07-30T00:25:35.418Z,92.66
2018-07-30T00:26:35.417Z,92.66
2018-07-30T00:27:35.414Z,92.37
2018-07-30T00:28:35.411Z,92.56
2018-07-30T00:29:35.414Z,92.56
2018-07-30T00:30:35.420Z,92.66
2018-07-30T00:31:35.657Z,92.85
2018-07-30T00:32:35.406Z,92.66
2018-07-30T00:33:35.403Z,92.37
2018-07-30T00:34:35.402Z,92.56
2018-07-30T00:35:35.401Z,92.56
2018-07-30T00:36:35.396Z,92.56
2018-07-30T00:37:35.393Z,92.18
2018-07-30T00:38:35.139Z,92.94
2018-07-30T00:39:35.397Z,92.94
2018-07-30T00:40:35.387Z,92.94
2018-07-30T00:41:35.384Z,92.94
2018-07-30T00:42:35.382Z,92.76
2018-07-30T00:43:35.129Z,93.14
2018-07-30T00:44:35.393Z,93.24
2018-07-30T00:45:35.124Z,93.52
2018-07-30T00:46:35.376Z,93.67
2018-07-30T00:47:35.386Z,93.09
2018-07-30T00:48:35.374Z,93.38
2018-07-30T00:49:35.367Z,93.38
2018-07-30T00:50:35.365Z,93.48
2018-07-30T00:51:35.113Z,92.9
2018-07-30T00:52:35.360Z,92.9
2018-07-30T00:53:35.370Z,93.09
2018-07-30T00:54:35.356Z,93.29
2018-07-30T00:55:35.353Z,93.57
2018-07-30T00:56:35.370Z,93.43
2018-07-30T00:57:35.349Z,93.62
2018-07-30T00:58:35.348Z,92.66
2018-07-30T00:59:35.348Z,93.14
2018-07-30T01:00:35.345Z,93.14
2018-07-30T01:01:35.089Z,92.85
2018-07-30T01:02:35.340Z,93.04
2018-07-30T01:03:35.337Z,93.33
2018-07-30T01:04:35.090Z,92.85
2018-07-30T01:05:35.080Z,93.14
2018-07-30T01:06:35.329Z,93.04
2018-07-30T01:07:35.462Z,92.66
2018-07-30T01:08:35.325Z,92.56
2018-07-30T01:09:35.322Z,93.24
2018-07-30T01:10:35.322Z,92.94
2018-07-30T01:11:35.325Z,93.04
2018-07-30T01:12:35.317Z,93.04
2018-07-30T01:13:35.317Z,92.66
2018-07-30T01:14:35.326Z,92.94
2018-07-30T01:15:35.310Z,92.76
2018-07-30T01:16:35.061Z,92.37
2018-07-30T01:17:35.311Z,93.33
2018-07-30T01:18:35.317Z,93.04
2018-07-30T01:19:35.305Z,93.04
2018-07-30T01:20:35.297Z,92.94
2018-07-30T01:21:35.380Z,92.76
2018-07-30T01:22:35.295Z,93.24
2018-07-30T01:23:35.293Z,92.94
2018-07-30T01:24:35.290Z,93.04
2018-07-30T01:25:35.288Z,93.24
2018-07-30T01:26:35.291Z,93.43
2018-07-30T01:27:35.282Z,93.04
2018-07-30T01:28:35.282Z,93.04
2018-07-30T01:29:35.280Z,93.04
2018-07-30T01:30:35.279Z,92.85
2018-07-30T01:31:35.277Z,92.85
2018-07-30T01:32:35.272Z,92.94
2018-07-30T01:33:35.271Z,93.14
2018-07-30T01:34:35.268Z,93.04
2018-07-30T01:35:35.266Z,93.14
2018-07-30T01:36:35.267Z,92.85
2018-07-30T01:37:35.261Z,93.04
2018-07-30T01:38:35.263Z,93.24
2018-07-30T01:39:35.259Z,93.04
2018-07-30T01:40:35.254Z,93.14
2018-07-30T01:41:35.255Z,93.04
2018-07-30T01:42:35.253Z,92.85
2018-07-30T01:43:35.258Z,92.76
2018-07-30T01:44:35.250Z,93.33
2018-07-30T01:45:35.245Z,93.14
2018-07-30T01:46:35.243Z,93.24
2018-07-30T01:47:35.240Z,93.14
2018-07-30T01:48:34.987Z,93.14
2018-07-30T01:49:35.235Z,93.14
2018-07-30T01:50:35.234Z,93.33
2018-07-30T01:51:34.980Z,93.33
2018-07-30T01:52:35.229Z,93.24
2018-07-30T01:53:35.230Z,93.14
2018-07-30T01:54:35.225Z,93.14
2018-07-30T01:55:35.398Z,93.24
2018-07-30T01:56:34.970Z,93.33
2018-07-30T01:57:35.222Z,93.14
2018-07-30T01:58:34.966Z,93.33
2018-07-30T01:59:35.215Z,93.14
2018-07-30T02:00:35.212Z,93.24
2018-07-30T02:01:35.210Z,92.94
2018-07-30T02:02:35.209Z,93.24
2018-07-30T02:03:35.208Z,93.14
2018-07-30T02:04:35.205Z,92.66
2018-07-30T02:05:35.202Z,92.66
2018-07-30T02:06:34.948Z,92.76
2018-07-30T02:07:35.198Z,92.56
2018-07-30T02:08:35.197Z,92.47
2018-07-30T02:09:35.196Z,92.71
2018-07-30T02:10:35.193Z,92.76
2018-07-30T02:11:35.190Z,93.04
2018-07-30T02:12:35.189Z,93.14
2018-07-30T02:13:35.185Z,93.33
2018-07-30T02:14:35.184Z,92.71
2018-07-30T02:15:35.181Z,93.19
2018-07-30T02:16:35.179Z,92.41
2018-07-30T02:17:34.925Z,92.61
2018-07-30T02:18:35.177Z,93.09
2018-07-30T02:19:35.173Z,92.99
2018-07-30T02:20:35.173Z,93.09
2018-07-30T02:21:35.303Z,92.99
2018-07-30T02:22:35.171Z,92.71
2018-07-30T02:23:34.915Z,92.8
2018-07-30T02:24:35.163Z,92.99
2018-07-30T02:25:35.163Z,92.61
2018-07-30T02:26:35.163Z,92.8
2018-07-30T02:27:35.157Z,92.9
2018-07-30T02:28:35.157Z,92.61
2018-07-30T02:29:35.211Z,93.28
2018-07-30T02:30:35.152Z,93.09
2018-07-30T02:31:35.149Z,92.9
2018-07-30T02:32:35.148Z,92.99
2018-07-30T02:33:35.155Z,93.19
2018-07-30T02:34:35.143Z,93.28
2018-07-30T02:35:35.143Z,93.28
2018-07-30T02:36:34.888Z,93.09
2018-07-30T02:37:35.143Z,93.76
2018-07-30T02:38:35.137Z,93.09
2018-07-30T02:39:35.134Z,93.19
2018-07-30T02:40:35.130Z,93.48
2018-07-30T02:41:35.130Z,93.48
2018-07-30T02:42:35.187Z,93.24
2018-07-30T02:43:35.136Z,93.28
2018-07-30T02:44:34.871Z,93.28
2018-07-30T02:45:35.129Z,93.57
2018-07-30T02:46:35.131Z,93.09
2018-07-30T02:47:35.121Z,93.57
2018-07-30T02:48:35.119Z,93.09
2018-07-30T02:49:35.112Z,93.09
2018-07-30T02:50:35.114Z,93.28
2018-07-30T02:51:35.108Z,93.28
2018-07-30T02:52:35.129Z,92.99
2018-07-30T02:53:35.105Z,93.28
2018-07-30T02:54:35.102Z,93.19
2018-07-30T02:55:35.101Z,93.28
2018-07-30T02:56:35.100Z,93.09
2018-07-30T02:57:35.194Z,93.19
2018-07-30T02:58:35.104Z,92.99
2018-07-30T02:59:35.094Z,93.38
2018-07-30T03:00:35.091Z,93.09
2018-07-30T03:01:35.088Z,93.28
2018-07-30T03:02:35.088Z,93.09
2018-07-30T03:03:35.085Z,93.48
2018-07-30T03:04:35.081Z,93.19
2018-07-30T03:05:35.084Z,92.99
2018-07-30T03:06:34.832Z,93.28
2018-07-30T03:07:35.077Z,93.19
2018-07-30T03:08:35.073Z,93.28
2018-07-30T03:09:35.072Z,92.8
2018-07-30T03:10:35.069Z,92.9
2018-07-30T03:11:35.068Z,92.99
2018-07-30T03:12:34.814Z,92.51
2018-07-30T03:13:34.811Z,92.61
2018-07-30T03:14:35.062Z,92.51
2018-07-30T03:15:35.059Z,92.41
2018-07-30T03:16:35.057Z,92.75
2018-07-30T03:17:35.058Z,92.65
2018-07-30T03:18:34.802Z,92.27
2018-07-30T03:19:35.050Z,92.36
2018-07-30T03:20:35.049Z,92.46
2018-07-30T03:21:35.048Z,92.46
2018-07-30T03:22:35.047Z,92.65
2018-07-30T03:23:35.048Z,91.98
2018-07-30T03:24:35.043Z,92.27
2018-07-30T03:25:35.041Z,92.27
2018-07-30T03:26:35.037Z,92.56
2018-07-30T03:27:35.040Z,92.17
2018-07-30T03:28:35.097Z,92.75
2018-07-30T03:29:35.036Z,92.17
2018-07-30T03:30:35.033Z,92.36
2018-07-30T03:31:35.029Z,92.08
2018-07-30T03:32:35.028Z,92.08
2018-07-30T03:33:35.024Z,92.46
2018-07-30T03:34:35.023Z,92.56
2018-07-30T03:35:34.770Z,92.56
2018-07-30T03:36:35.022Z,92.27
2018-07-30T03:37:35.018Z,92.17
2018-07-30T03:38:35.014Z,92.17
2018-07-30T03:39:35.016Z,92.36
2018-07-30T03:40:35.012Z,91.98
2018-07-30T03:41:35.009Z,92.65
2018-07-30T03:42:34.756Z,92.17
2018-07-30T03:43:35.010Z,91.88
2018-07-30T03:44:35.005Z,92.27
2018-07-30T03:45:35.006Z,92.32
2018-07-30T03:46:35.000Z,92.02
2018-07-30T03:47:34.999Z,91.83
2018-07-30T03:48:34.996Z,92.02
2018-07-30T03:49:34.995Z,92.02
2018-07-30T03:50:35.022Z,91.64
2018-07-30T03:51:34.992Z,91.74
2018-07-30T03:52:34.989Z,92.12
2018-07-30T03:53:34.736Z,91.93
2018-07-30T03:54:35.018Z,91.93
2018-07-30T03:55:34.985Z,91.54
2018-07-30T03:56:34.985Z,91.44
2018-07-30T03:57:34.982Z,91.44
2018-07-30T03:58:34.980Z,91.44
2018-07-30T03:59:34.726Z,91.35
2018-07-30T04:00:34.977Z,90.87
2018-07-30T04:01:34.975Z,90.87
2018-07-30T04:02:34.974Z,91.2
2018-07-30T04:03:34.720Z,91.2
2018-07-30T04:04:34.970Z,90.91
2018-07-30T04:05:34.968Z,90.81
2018-07-30T04:06:35.074Z,90.72
2018-07-30T04:07:34.969Z,91.11
2018-07-30T04:08:34.965Z,90.72
2018-07-30T04:09:34.713Z,90.43
2018-07-30T04:10:34.962Z,90.43
2018-07-30T04:11:34.963Z,90.43
2018-07-30T04:12:34.972Z,90.05
2018-07-30T04:13:34.970Z,90.23
2018-07-30T04:14:34.957Z,90.23
2018-07-30T04:15:34.704Z,90.23
2018-07-30T04:16:34.953Z,90.53
2018-07-30T04:17:34.954Z,90.53
2018-07-30T04:18:34.951Z,90.33
2018-07-30T04:19:34.950Z,90.43
2018-07-30T04:20:34.948Z,90.23
2018-07-30T04:21:34.948Z,90.43
2018-07-30T04:22:34.953Z,90.33
2018-07-30T04:23:34.944Z,90.33
2018-07-30T04:24:34.945Z,90.23
2018-07-30T04:25:34.940Z,90.43
2018-07-30T04:26:34.939Z,90.14
2018-07-30T04:27:34.941Z,90.23
2018-07-30T04:28:34.937Z,90.23
2018-07-30T04:29:34.935Z,90.23
2018-07-30T04:30:34.934Z,90.23
2018-07-30T04:31:34.933Z,90.23
2018-07-30T04:32:34.681Z,90.33
2018-07-30T04:33:34.930Z,90.23
2018-07-30T04:34:34.934Z,89.95
2018-07-30T04:35:34.936Z,90.23
2018-07-30T04:36:34.935Z,90.62
2018-07-30T04:37:34.925Z,90.43
2018-07-30T04:38:34.672Z,90.43
2018-07-30T04:39:34.922Z,90.43
2018-07-30T04:40:34.919Z,90.43
2018-07-30T04:41:34.920Z,90.62
2018-07-30T04:42:34.918Z,90.43
2018-07-30T04:43:34.918Z,90.37
2018-07-30T04:44:34.916Z,90.28
2018-07-30T04:45:34.915Z,90.37
2018-07-30T04:46:34.662Z,90.09
2018-07-30T04:47:34.910Z,89.7
2018-07-30T04:48:34.913Z,89.79
2018-07-30T04:49:34.911Z,89.99
2018-07-30T04:50:34.662Z,90.19
2018-07-30T04:51:34.907Z,89.89
2018-07-30T04:52:34.905Z,89.89
2018-07-30T04:53:34.908Z,89.89
2018-07-30T04:54:34.906Z,89.79
2018-07-30T04:55:34.905Z,89.75
2018-07-30T04:56:34.907Z,88.87
2018-07-30T04:57:34.912Z,89.26
2018-07-30T04:58:34.901Z,89.36
2018-07-30T04:59:34.899Z,88.49
2018-07-30T05:00:34.901Z,88.49
2018-07-30T05:01:34.899Z,88.59
2018-07-30T05:02:34.898Z,88.59
2018-07-30T05:03:34.644Z,88.05
2018-07-30T05:04:34.898Z,87.95
2018-07-30T05:05:34.895Z,88.05
2018-07-30T05:06:34.900Z,87.37
2018-07-30T05:07:34.895Z,87.76
2018-07-30T05:08:34.649Z,87.99
2018-07-30T05:09:34.897Z,87.71
2018-07-30T05:10:34.892Z,87.32
2018-07-30T05:11:34.896Z,87.9
2018-07-30T05:12:34.893Z,87.27
2018-07-30T05:13:34.897Z,86.98
2018-07-30T05:14:34.896Z,86.59
2018-07-30T05:15:34.892Z,86.49
2018-07-30T05:16:34.640Z,86.1
2018-07-30T05:17:34.894Z,86.05
2018-07-30T05:18:34.909Z,86.24
2018-07-30T05:19:34.935Z,85.66
2018-07-30T05:20:34.642Z,86.05
2018-07-30T05:21:34.893Z,85.76
2018-07-30T05:22:34.899Z,84.83
2018-07-30T05:23:34.896Z,84.45
2018-07-30T05:24:34.900Z,84.16
2018-07-30T05:25:35.085Z,83.77
2018-07-30T05:26:34.902Z,84.25
2018-07-30T05:27:34.899Z,84.45
2018-07-30T05:28:34.899Z,83.86
2018-07-30T05:29:34.901Z,83.86
2018-07-30T05:30:34.901Z,83.86
2018-07-30T05:31:34.988Z,83.52
2018-07-30T05:32:34.903Z,83.23
2018-07-30T05:33:34.656Z,83.81
2018-07-30T05:34:34.653Z,83.33
2018-07-30T05:35:34.910Z,83.33
2018-07-30T05:36:34.908Z,83.72
2018-07-30T05:37:34.911Z,83.52
2018-07-30T05:38:34.910Z,83.33
2018-07-30T05:39:34.914Z,83.52
2018-07-30T05:40:34.916Z,83.42
2018-07-30T05:41:34.916Z,83.23
2018-07-30T05:42:34.665Z,83.03
2018-07-30T05:43:34.668Z,83.23
2018-07-30T05:44:34.928Z,83.07
2018-07-30T05:45:34.920Z,83.37
2018-07-30T05:46:34.926Z,83.07
2018-07-30T05:47:34.926Z,82.5
2018-07-30T05:48:34.937Z,82.5
2018-07-30T05:49:34.928Z,83.17
2018-07-30T05:50:34.677Z,83.07
2018-07-30T05:51:34.938Z,82.78
2018-07-30T05:52:34.930Z,82.59
2018-07-30T05:53:34.933Z,82.69
2018-07-30T05:54:34.935Z,82.59
2018-07-30T05:55:34.939Z,82.5
2018-07-30T05:56:34.941Z,83.17
2018-07-30T05:57:34.688Z,83.17
2018-07-30T05:58:34.949Z,83.07
2018-07-30T05:59:35.158Z,82.88
2018-07-30T06:00:34.692Z,83.27
2018-07-30T06:01:34.946Z,82.78
2018-07-30T06:02:34.949Z,83.17
2018-07-30T06:03:34.951Z,82.88
2018-07-30T06:04:34.954Z,82.69
2018-07-30T06:05:35.158Z,83.37
2018-07-30T06:06:34.955Z,82.98
2018-07-30T06:07:34.958Z,82.78
2018-07-30T06:08:34.957Z,83.56
2018-07-30T06:09:35.044Z,82.88
2018-07-30T06:10:34.959Z,83.07
2018-07-30T06:11:34.962Z,83.65
2018-07-30T06:12:34.962Z,82.88
2018-07-30T06:13:34.964Z,83.07
2018-07-30T06:14:34.716Z,82.69
2018-07-30T06:15:34.975Z,82.78
2018-07-30T06:16:34.984Z,83.37
2018-07-30T06:17:34.719Z,83.37
2018-07-30T06:18:34.971Z,83.56
2018-07-30T06:19:34.723Z,83.27
2018-07-30T06:20:34.983Z,83.17
2018-07-30T06:21:34.980Z,82.78
2018-07-30T06:22:34.978Z,82.78
2018-07-30T06:23:34.982Z,83.27
2018-07-30T06:24:34.982Z,82.98
2018-07-30T06:25:34.981Z,82.82
2018-07-30T06:26:35.085Z,82.63
2018-07-30T06:27:34.987Z,83.22
2018-07-30T06:28:34.994Z,83.22
2018-07-30T06:29:34.995Z,82.82
2018-07-30T06:30:35.029Z,82.73
2018-07-30T06:31:34.994Z,83.02
2018-07-30T06:32:34.996Z,82.92
2018-07-30T06:33:34.994Z,83.22
2018-07-30T06:34:34.997Z,82.82
2018-07-30T06:35:35.001Z,82.82
2018-07-30T06:36:35.004Z,83.02
2018-07-30T06:37:35.003Z,82.82
2018-07-30T06:38:35.075Z,82.18
2018-07-30T06:39:35.008Z,82.18
2018-07-30T06:40:35.010Z,82.48
2018-07-30T06:41:35.013Z,81.9
2018-07-30T06:42:35.012Z,81.99
2018-07-30T06:43:35.019Z,81.9
2018-07-30T06:44:35.028Z,81.31
2018-07-30T06:45:35.019Z,81.74
2018-07-30T06:46:35.021Z,81.55
2018-07-30T06:47:35.025Z,81.51
2018-07-30T06:48:35.033Z,81.55
2018-07-30T06:49:35.034Z,81.26
2018-07-30T06:50:35.031Z,81.55
2018-07-30T06:51:35.039Z,81.16
2018-07-30T06:52:35.043Z,81.16
2018-07-30T06:53:35.039Z,81.74
2018-07-30T06:54:35.044Z,81.93
2018-07-30T06:55:35.044Z,81.55
2018-07-30T06:56:35.051Z,81.45
2018-07-30T06:57:35.048Z,81.35
2018-07-30T06:58:35.052Z,81.35
2018-07-30T06:59:34.804Z,81.74
2018-07-30T07:00:35.057Z,80.68
2018-07-30T07:01:35.058Z,81.39
2018-07-30T07:02:35.078Z,80.81
2018-07-30T07:03:35.064Z,80.81
2018-07-30T07:04:35.071Z,81.1
2018-07-30T07:05:35.072Z,80.71
2018-07-30T07:06:35.073Z,80.13
2018-07-30T07:07:35.076Z,80.13
2018-07-30T07:08:35.079Z,80.13
2018-07-30T07:09:35.083Z,80.07
2018-07-30T07:10:35.100Z,80.07
2018-07-30T07:11:34.837Z,79.97
2018-07-30T07:12:35.092Z,80.76
2018-07-30T07:13:35.094Z,79.78
2018-07-30T07:14:35.097Z,79.97
2018-07-30T07:15:35.101Z,79.97
2018-07-30T07:16:34.903Z,80.07
2018-07-30T07:17:35.107Z,80.07
2018-07-30T07:18:35.111Z,80.76
2018-07-30T07:19:34.870Z,80.07
2018-07-30T07:20:34.889Z,80.17
2018-07-30T07:21:35.279Z,80.66
2018-07-30T07:22:35.123Z,80.46
2018-07-30T07:23:35.139Z,80.07
2018-07-30T07:24:34.892Z,80.17
2018-07-30T07:25:35.148Z,80.07
2018-07-30T07:26:35.135Z,80.07
2018-07-30T07:27:34.891Z,80.07
2018-07-30T07:28:34.891Z,79.88
2018-07-30T07:29:35.146Z,80.11
2018-07-30T07:30:35.153Z,79.04
2018-07-30T07:31:34.900Z,78.75
2018-07-30T07:32:35.155Z,78.75
2018-07-30T07:33:35.156Z,78.4
2018-07-30T07:34:47.895Z,78.69
2018-07-30T07:35:35.172Z,78.79
2018-07-30T07:36:35.169Z,78.11
2018-07-30T07:37:35.170Z,77.62
2018-07-30T07:38:35.174Z,77.33
2018-07-30T07:39:35.176Z,78.11
2018-07-30T07:40:35.183Z,77.82
2018-07-30T07:41:35.193Z,77.72
2018-07-30T07:42:35.189Z,77.23
2018-07-30T07:43:35.191Z,77.62
2018-07-30T07:44:35.204Z,76.94
2018-07-30T07:45:35.200Z,76.75
2018-07-30T07:46:35.204Z,75.52
2018-07-30T07:47:35.231Z,76.2
2018-07-30T07:48:35.232Z,74.74
2018-07-30T07:49:35.217Z,75.52
2018-07-30T07:50:35.633Z,75.42
2018-07-30T07:51:35.297Z,74.93
2018-07-30T07:52:35.229Z,74.97
2018-07-30T07:53:35.256Z,74.49
2018-07-30T07:54:35.240Z,74.04
2018-07-30T07:55:35.501Z,73.06
2018-07-30T07:56:35.250Z,72.41
2018-07-30T07:57:35.264Z,72.22
2018-07-30T07:58:35.269Z,71.92
2018-07-30T07:59:35.014Z,71.57
2018-07-30T08:00:35.018Z,71.05
2018-07-30T08:01:35.356Z,70.98
2018-07-30T08:02:35.283Z,71.25
2018-07-30T08:03:35.288Z,71.25
2018-07-30T08:04:35.298Z,71.25
2018-07-30T08:05:35.314Z,71.57
2018-07-30T08:06:35.313Z,70.89
2018-07-30T08:07:35.332Z,71.28
2018-07-30T08:08:35.316Z,70.98
2018-07-30T08:09:35.081Z,71.05
2018-07-30T08:10:35.329Z,71.54
2018-07-30T08:11:35.095Z,71.25
2018-07-30T08:12:48.072Z,71.54
2018-07-30T08:13:35.363Z,71.54
2018-07-30T08:14:35.101Z,71.64
2018-07-30T08:15:35.365Z,71.54
2018-07-30T08:16:35.367Z,71.57
2018-07-30T08:18:35.125Z,70.24
2018-07-30T08:19:48.120Z,70.47
2018-07-30T08:20:41.655Z,69.75
2018-07-30T08:21:35.404Z,69.49
2018-07-30T08:22:35.407Z,69.49
2018-07-30T08:23:35.413Z,69.1
2018-07-30T08:24:35.437Z,68.55
2018-07-30T08:25:38.116Z,67.29
2018-07-30T08:26:35.444Z,66.96
2018-07-30T08:27:35.442Z,65.72
2018-07-30T08:28:35.450Z,64.97
2018-07-30T08:29:35.462Z,63.82
2018-07-30T08:30:35.218Z,62.71
2018-07-30T08:31:35.478Z,61.37
2018-07-30T08:32:35.493Z,59.92
2018-07-30T08:33:35.503Z,58.58
2018-07-30T08:34:35.510Z,57.73
2018-07-30T08:35:35.520Z,56.28
2018-07-30T08:36:35.539Z,54.93
2018-07-30T08:37:35.578Z,53.88
2018-07-30T08:38:35.556Z,53.61
2018-07-30T08:39:35.568Z,52.03
2018-07-30T08:40:35.579Z,51.45
2018-07-30T08:41:35.590Z,51.54
2018-07-30T08:42:35.609Z,51.05
2018-07-30T08:43:35.621Z,51.25
2018-07-30T08:44:35.627Z,51.07
2018-07-30T08:45:35.390Z,50.09
2018-07-30T08:46:35.655Z,49.62
2018-07-30T08:47:35.671Z,49.23
2018-07-30T08:48:35.682Z,49.11
2018-07-30T08:49:35.707Z,49.97
2018-07-30T08:50:35.721Z,50.34
2018-07-30T08:51:35.726Z,51.4
2018-07-30T08:52:48.481Z,52.55
2018-07-30T08:53:35.768Z,52.92
2018-07-30T08:54:35.771Z,52.82
2018-07-30T08:55:35.529Z,53.19
2018-07-30T08:56:35.796Z,53.19
2018-07-30T08:57:35.809Z,53.65
2018-07-30T08:58:35.822Z,54.24
2018-07-30T08:59:35.580Z,54.41
2018-07-30T09:00:35.859Z,54.9
2018-07-30T09:01:35.861Z,55.26
2018-07-30T09:02:35.865Z,55.66
2018-07-30T09:03:35.626Z,55.82
2018-07-30T09:04:35.892Z,55.63
2018-07-30T09:05:35.900Z,55.99
2018-07-30T09:06:36.513Z,57.26
2018-07-30T09:07:35.916Z,58.02
2018-07-30T09:08:35.929Z,58.22
2018-07-30T09:09:35.937Z,58.18
2018-07-30T09:10:35.952Z,58.68
2018-07-30T09:11:35.701Z,58.94
2018-07-30T09:12:35.776Z,59.23
2018-07-30T09:13:35.972Z,60.38
2018-07-30T09:14:35.976Z,60.86
2018-07-30T09:15:35.733Z,61.35
2018-07-30T09:16:36.002Z,61.91
2018-07-30T09:17:36.006Z,62.4
2018-07-30T09:18:36.006Z,62.3
2018-07-30T09:19:35.765Z,62.79
2018-07-30T09:20:36.023Z,64.22
2018-07-30T09:21:36.027Z,64.61
2018-07-30T09:22:36.036Z,64.03
2018-07-30T09:23:36.041Z,63.73
2018-07-30T09:24:36.046Z,64.12
2018-07-30T09:25:36.053Z,63.93
2018-07-30T09:26:36.066Z,63.83
2018-07-30T09:27:36.066Z,63.8
2018-07-30T09:28:36.087Z,63.54
2018-07-30T09:29:36.077Z,63.05
2018-07-30T09:30:36.083Z,61.2
2018-07-30T09:31:36.092Z,61.07
2018-07-30T09:32:36.164Z,61.46
2018-07-30T09:33:36.100Z,61.17
2018-07-30T09:34:36.107Z,61.17
2018-07-30T09:35:36.111Z,61.85
2018-07-30T09:36:36.118Z,62.05
2018-07-30T09:37:36.127Z,62.44
2018-07-30T09:38:36.149Z,62.53
2018-07-30T09:39:36.308Z,62.24
2018-07-30T09:40:36.143Z,62.44
2018-07-30T09:41:36.145Z,61.95
2018-07-30T09:42:35.898Z,62.05
2018-07-30T09:43:36.154Z,62.24
2018-07-30T09:44:35.955Z,63.02
2018-07-30T09:45:36.167Z,63.41
2018-07-30T09:46:36.173Z,63.6
2018-07-30T09:47:36.175Z,63.12
2018-07-30T09:48:35.929Z,63.31
2018-07-30T09:49:36.192Z,62.27
2018-07-30T09:50:36.303Z,61.2
2018-07-30T09:51:36.198Z,61.1
2018-07-30T09:52:36.202Z,61.88
2018-07-30T09:53:36.207Z,62.18
2018-07-30T09:54:36.248Z,63.24
2018-07-30T09:55:36.221Z,62.47
2018-07-30T09:56:36.225Z,62.37
2018-07-30T09:57:36.233Z,61.3
2018-07-30T09:58:36.232Z,61
2018-07-30T09:59:35.997Z,60.32
2018-07-30T10:00:36.244Z,59.08
2018-07-30T10:01:36.255Z,58.47
2018-07-30T10:02:36.003Z,57
2018-07-30T10:03:36.268Z,56.51
2018-07-30T10:04:36.265Z,55.44
2018-07-30T10:05:36.289Z,55.54
2018-07-30T10:06:36.024Z,54.46
2018-07-30T10:07:36.380Z,55.05
2018-07-30T10:08:36.293Z,56.22
2018-07-30T10:09:36.292Z,56.87
2018-07-30T10:10:36.295Z,57.95
2018-07-30T10:11:36.393Z,57.17
2018-07-30T10:12:36.309Z,58.17
2018-07-30T10:13:36.060Z,58.37
2018-07-30T10:14:36.323Z,58.27
2018-07-30T10:15:36.325Z,58.47
2018-07-30T10:16:36.326Z,58.86
2018-07-30T10:17:36.419Z,57.68
2018-07-30T10:18:36.086Z,56.9
2018-07-30T10:19:36.344Z,55.44
2018-07-30T10:20:36.350Z,52.9
2018-07-30T10:21:36.352Z,51.92
2018-07-30T10:22:36.356Z,52.22
2018-07-30T10:23:36.420Z,52.7
2018-07-30T10:24:36.378Z,53
2018-07-30T10:25:36.373Z,53
2018-07-30T10:26:36.379Z,53.39
2018-07-30T10:27:36.383Z,53.42
2018-07-30T10:28:36.396Z,52.51
2018-07-30T10:29:36.402Z,52.12
2018-07-30T10:30:36.432Z,52.25
2018-07-30T10:31:36.403Z,52.61
2018-07-30T10:32:36.418Z,52.93
2018-07-30T10:33:36.413Z,52.25
2018-07-30T10:34:36.566Z,51.27
2018-07-30T10:35:36.424Z,51.46
2018-07-30T10:36:36.429Z,51.66
2018-07-30T10:37:36.448Z,50.59
2018-07-30T10:38:36.455Z,50.39
2018-07-30T10:39:36.460Z,49.32
2018-07-30T10:40:36.449Z,48.93
2018-07-30T10:41:36.461Z,47.75
2018-07-30T10:42:36.206Z,48.44
2018-07-30T10:43:36.462Z,48.24
2018-07-30T10:44:36.467Z,48.73
2018-07-30T10:45:36.482Z,48.83
2018-07-30T10:46:36.479Z,48.83
2018-07-30T10:47:36.493Z,50.12
2018-07-30T10:48:36.498Z,49.33
2018-07-30T10:49:36.511Z,45.92
2018-07-30T10:50:36.498Z,45.53
2018-07-30T10:51:36.504Z,45.14
2018-07-30T10:52:36.511Z,46.99
2018-07-30T10:53:36.514Z,47.67
2018-07-30T10:54:36.526Z,47.77
2018-07-30T10:55:36.527Z,46.01
2018-07-30T10:56:36.631Z,46.21
2018-07-30T10:57:36.535Z,46.11
2018-07-30T10:58:36.545Z,46.7
2018-07-30T10:59:36.545Z,43.87
2018-07-30T11:00:36.550Z,42.5
2018-07-30T11:01:36.556Z,42.6
2018-07-30T11:02:36.562Z,43.28
2018-07-30T11:03:36.567Z,45.14
2018-07-30T11:04:36.331Z,45.92
2018-07-30T11:05:36.327Z,45.72
2018-07-30T11:06:36.586Z,46.6
2018-07-30T11:07:36.588Z,46.82
2018-07-30T11:08:36.594Z,44.77
2018-07-30T11:09:36.658Z,44.77
2018-07-30T11:10:36.626Z,43.79
2018-07-30T11:11:36.613Z,42.52
2018-07-30T11:12:36.622Z,42.03
2018-07-30T11:13:36.654Z,42.71
2018-07-30T11:14:36.657Z,43.49
2018-07-30T11:15:36.633Z,43.4
2018-07-30T11:16:36.643Z,43.3
2018-07-30T11:17:36.661Z,43.69
2018-07-30T11:18:36.648Z,43.4
2018-07-30T11:19:36.658Z,44.18
2018-07-30T11:20:36.659Z,44.38
2018-07-30T11:21:36.485Z,44.77
2018-07-30T11:22:36.424Z,44.79
2018-07-30T11:23:36.439Z,44.3
2018-07-30T11:24:36.686Z,42.54
2018-07-30T11:25:36.687Z,42.93
2018-07-30T11:26:36.692Z,41.76
2018-07-30T11:27:36.698Z,40.48
2018-07-30T11:28:36.746Z,40.39
2018-07-30T11:29:36.709Z,40.29
2018-07-30T11:30:36.722Z,40.68
2018-07-30T11:31:36.468Z,40.39
2018-07-30T11:32:36.725Z,41.46
2018-07-30T11:33:36.866Z,41.56
2018-07-30T11:34:36.757Z,41.76
2018-07-30T11:35:36.492Z,41.46
2018-07-30T11:36:36.759Z,40.5
2018-07-30T11:37:36.533Z,40.6
2018-07-30T11:38:36.509Z,38.55
2018-07-30T11:39:36.795Z,38.65
2018-07-30T11:40:36.522Z,38.35
2018-07-30T11:41:36.778Z,39.43
2018-07-30T11:42:36.792Z,40.01
2018-07-30T11:43:36.807Z,40.41
2018-07-30T11:44:36.800Z,40.6
2018-07-30T11:45:36.800Z,40.5
2018-07-30T11:46:36.806Z,39.92
2018-07-30T11:47:36.815Z,39.82
2018-07-30T11:48:36.602Z,39.23
2018-07-30T11:49:36.825Z,39.04
2018-07-30T11:50:36.830Z,39.62
2018-07-30T11:51:36.835Z,39.43
2018-07-30T11:52:36.841Z,40.31
2018-07-30T11:53:36.862Z,40.11
2018-07-30T11:54:36.938Z,39.43
2018-07-30T11:55:36.858Z,39.14
2018-07-30T11:56:36.864Z,39.23
2018-07-30T11:57:36.880Z,39.33
2018-07-30T11:58:36.629Z,39.43
2018-07-30T11:59:36.635Z,38.75
2018-07-30T12:00:36.637Z,38.55
2018-07-30T12:01:36.946Z,39.06
2018-07-30T12:02:36.650Z,37.87
2018-07-30T12:03:36.906Z,38.55
2018-07-30T12:04:36.924Z,38.28
2018-07-30T12:05:36.917Z,37.79
2018-07-30T12:06:36.927Z,37.79
2018-07-30T12:07:36.683Z,37.98
2018-07-30T12:08:36.690Z,38.57
2018-07-30T12:09:36.697Z,38.76
2018-07-30T12:10:36.973Z,39.25
2018-07-30T12:11:36.955Z,40.63
2018-07-30T12:12:36.959Z,40.82
2018-07-30T12:13:37.135Z,40.33
2018-07-30T12:14:36.976Z,41.02
2018-07-30T12:15:36.978Z,41.41
2018-07-30T12:16:37.006Z,41.41
2018-07-30T12:17:37.015Z,41.21
2018-07-30T12:18:36.995Z,41.7
2018-07-30T12:19:37.012Z,40.82
2018-07-30T12:20:37.021Z,40.55
2018-07-30T12:21:37.051Z,39.35
2018-07-30T12:22:37.044Z,39.45
2018-07-30T12:23:37.029Z,39.64
2018-07-30T12:24:37.054Z,40.43
2018-07-30T12:25:37.038Z,40.92
2018-07-30T12:26:37.045Z,40.82
2018-07-30T12:27:36.800Z,40.43
2018-07-30T12:28:36.806Z,39.06
2018-07-30T12:29:36.814Z,39.45
2018-07-30T12:30:37.251Z,39.25
2018-07-30T12:31:37.097Z,40.53
2018-07-30T12:32:37.082Z,41.02
2018-07-30T12:33:37.108Z,41.11
2018-07-30T12:34:36.842Z,41.41
2018-07-30T12:35:37.112Z,41.31
2018-07-30T12:36:37.314Z,41.72
2018-07-30T12:37:37.115Z,40.94
2018-07-30T12:38:37.128Z,40.64
2018-07-30T12:39:36.872Z,40.33
2018-07-30T12:40:37.133Z,40.23
2018-07-30T12:41:37.205Z,40.82
2018-07-30T12:42:37.185Z,41.41
2018-07-30T12:43:37.172Z,41.23
2018-07-30T12:44:37.160Z,40.92
2018-07-30T12:45:37.163Z,40.74
2018-07-30T12:46:37.165Z,40.94
2018-07-30T12:47:37.175Z,39.76
2018-07-30T12:48:36.930Z,39.27
2018-07-30T12:49:37.186Z,39.27
2018-07-30T12:50:37.543Z,39.96
2018-07-30T12:51:37.223Z,40.64
2018-07-30T12:52:37.251Z,40.84
2018-07-30T12:53:37.234Z,40.94
2018-07-30T12:54:37.273Z,40.64
2018-07-30T12:55:37.220Z,40.74